Latest Weather Observations for Witchcliffe

IDW60801

Issued at 1:32 pm WST Saturday 1 August 2015 (issued every 30 minutes, with the page automatically refreshed every 10 minutes)

About weather observations | Map of weather stations | Latest weather observations for WA | Other Formats
Station Details ID: 009746 Name: WITCHCLIFFE Lat: -34.03 Lon: 115.10 Height: 80.0 m
Data from the previous 72 hours. | See also: Recent months at Witchcliffe
Date/Time
WST
Temp
°C
App
Temp
°C
Dew
Point
Rel
Hum
%
Delta-T
°C
Wind Press
QNH
hPa
Press
MSL
hPa
Rain
since 9 am
mm
Dir
 
Spd
km/h
Gust
km/h
Spd
kts
Gust
kts
01/01:30pm 13.5 9.0 5.9 60 3.6 SE 19 24 10 13 1027.2 1027.2 0.0
01/01:00pm 13.5 9.4 6.4 62 3.4 SE 17 24 9 13 1027.3 1027.3 0.0
01/12:30pm 13.5 9.3 5.9 60 3.6 SE 17 24 9 13 1027.6 1027.6 0.0
01/12:00pm 13.2 9.1 6.1 62 3.4 SE 17 24 9 13 1027.8 1027.9 0.0
01/11:30am 13.1 8.6 6.0 62 3.4 SE 19 28 10 15 1027.9 1028.0 0.0
01/11:00am 12.6 8.4 5.5 62 3.3 SE 17 30 9 16 1028.1 1028.2 0.0
01/10:30am 13.0 9.9 5.7 61 3.4 SE 11 24 6 13 1027.8 1027.9 0.0
01/10:00am 12.7 8.6 6.3 65 3.0 SE 17 30 9 16 1027.6 1027.6 0.0
01/09:30am 11.7 8.8 6.4 70 2.5 SE 11 17 6 9 1027.4 1027.4 0.0
01/09:00am 11.1 8.4 5.6 69 2.5 SE 9 20 5 11 1026.9 1026.9 4.0
01/08:30am 10.7 7.5 5.3 69 2.5 SE 11 17 6 9 1026.4 1026.4 4.0
01/08:00am 10.4 7.2 5.0 69 2.4 SE 11 19 6 10 1025.8 1025.8 4.0
01/07:30am 9.6 6.7 4.8 72 2.2 SE 9 19 5 10 1025.1 1025.1 4.0
01/07:00am 10.2 6.6 5.0 70 2.3 SE 13 28 7 15 1024.6 1024.6 4.0
01/06:30am 10.4 6.9 5.6 72 2.2 SE 13 22 7 12 1024.1 1024.1 4.0
01/06:00am 10.5 6.8 6.1 74 2.0 SE 15 22 8 12 1023.7 1023.7 4.0
01/05:30am 10.4 6.7 6.2 75 2.0 SE 15 26 8 14 1023.4 1023.4 4.0
01/05:00am 10.4 6.7 6.2 75 2.0 SE 15 24 8 13 1023.3 1023.3 4.0
01/04:30am 10.7 6.2 6.3 74 2.1 SE 19 28 10 15 1023.0 1023.0 4.0
01/04:00am 10.3 5.9 6.5 77 1.8 SE 19 28 10 15 1022.8 1022.8 4.0
01/03:30am 9.9 5.8 6.4 79 1.6 SE 17 24 9 13 1022.5 1022.5 4.0
01/03:00am 9.8 6.1 6.3 79 1.6 SE 15 20 8 11 1022.3 1022.3 4.0
01/02:30am 10.2 6.2 6.5 78 1.7 SE 17 24 9 13 1022.0 1022.0 4.0
01/02:00am 10.3 6.0 6.8 79 1.6 SE 19 28 10 15 1021.7 1021.7 4.0
01/01:30am 10.3 6.7 6.8 79 1.7 SE 15 22 8 12 1021.6 1021.6 4.0
01/01:00am 10.9 6.5 7.4 79 1.7 SE 20 32 11 17 1021.1 1021.1 4.0
01/12:30am 10.9 5.8 7.8 81 1.5 SE 24 35 13 19 1020.7 1020.7 4.0
01/12:00am 10.8 6.7 8.6 86 1.1 SE 20 33 11 18 1020.5 1020.5 4.0
 
Date/Time
WST
Temp
°C
App
Temp
°C
Dew
Point
Rel
Hum
%
Delta-T
°C
Wind Press
QNH
hPa
Press
MSL
hPa
Rain
since 9 am
mm
Dir
 
Spd
km/h
Gust
km/h
Spd
kts
Gust
kts
31/11:30pm 10.8 6.8 9.1 89 0.8 SE 20 28 11 15 1020.5 1020.5 4.0
31/11:00pm 10.7 6.3 9.0 89 0.8 SE 22 33 12 18 1019.9 1020.0 3.8
31/10:30pm 10.6 5.8 8.9 89 0.8 SE 24 39 13 21 1019.6 1019.7 3.4
31/10:00pm 10.9 5.3 8.8 87 1.0 SE 28 44 15 24 1019.3 1019.4 3.4
31/09:30pm 10.7 5.9 9.0 89 0.8 SE 24 37 13 20 1019.1 1019.2 3.4
31/09:00pm 10.9 5.4 9.0 88 0.9 SE 28 48 15 26 1019.0 1019.1 3.4
31/08:44pm 10.9 5.4 9.3 90 0.8 SE 28 46 15 25 1019.0 1019.1 3.4
31/08:30pm 10.9 5.8 9.3 90 0.8 SE 26 37 14 20 1018.8 1018.9 3.4
31/08:11pm 11.1 5.6 9.2 88 1.0 SE 28 46 15 25 1018.5 1018.6 3.2
31/08:00pm 11.2 5.3 8.9 86 1.1 SE 30 43 16 23 1018.5 1018.6 3.2
31/07:30pm 11.4 6.6 8.8 84 1.3 SE 24 35 13 19 1018.2 1018.3 3.2
31/07:00pm 11.5 6.6 8.5 82 1.5 SE 24 35 13 19 1017.8 1017.9 3.2
31/06:30pm 11.6 6.7 8.5 81 1.5 SE 24 35 13 19 1017.3 1017.4 3.2
31/06:00pm 11.6 6.6 8.1 79 1.7 SE 24 35 13 19 1016.7 1016.8 3.2
31/05:30pm 11.5 6.2 8.4 81 1.5 SE 26 46 14 25 1016.3 1016.3 3.2
31/05:23pm 11.4 5.7 8.4 82 1.5 SE 28 46 15 25 1016.1 1016.1 3.2
31/05:00pm 11.3 6.1 8.9 85 1.2 SE 26 41 14 22 1016.0 1016.0 3.2
31/04:30pm 11.4 5.6 10.8 96 0.3 SE 32 52 17 28 1015.6 1015.6 3.2
31/04:00pm 11.4 5.1 11.2 99 0.1 SE 35 61 19 33 1015.1 1015.1 3.2
31/03:30pm 11.7 5.5 11.5 99 0.1 SE 35 61 19 33 1014.4 1014.4 3.0
31/03:00pm 11.9 6.2 11.7 99 0.1 SE 33 52 18 28 1014.0 1014.0 3.0
31/02:30pm 12.6 7.7 12.4 99 0.1 SE 30 50 16 27 1013.9 1013.9 2.6
31/02:01pm 12.8 8.3 12.6 99 0.1 SSE 28 46 15 25 1013.8 1013.8 1.8
31/02:00pm 12.9 8.8 12.7 99 0.1 SSE 26 44 14 24 1013.8 1013.8 1.8
31/01:30pm 14.4 10.8 14.2 99 0.1 SSE 26 35 14 19 1013.3 1013.3 1.2
31/01:00pm 14.8 12.5 14.6 99 0.1 SE 20 32 11 17 1013.3 1013.3 0.4
31/12:30pm 14.4 11.6 14.2 99 0.1 SE 22 35 12 19 1013.3 1013.3 0.2
31/12:00pm 14.8 12.1 14.6 99 0.1 SE 22 37 12 20 1013.2 1013.2 0.2
31/11:30am 14.8 12.6 14.8 100 0.0 SE 20 30 11 16 1013.5 1013.5 0.2
31/11:00am 15.2 13.1 15.2 100 0.0 SSE 20 28 11 15 1013.5 1013.5 0.2
31/10:30am 15.0 12.8 15.0 100 0.0 SSE 20 30 11 16 1013.4 1013.4 0.2
31/10:00am 15.0 13.0 15.0 100 0.0 SSE 19 28 10 15 1013.3 1013.3 0.2
31/09:30am 15.1 13.5 15.1 100 0.0 SSE 17 24 9 13 1012.9 1012.9 0.2
31/09:00am 14.8 15.2 14.8 100 0.0 SE 6 17 3 9 1013.0 1013.0 7.2
31/08:30am 14.8 14.3 14.8 100 0.0 SSE 11 17 6 9 1012.7 1012.7 6.8
31/08:00am 14.8 14.6 14.8 100 0.0 SE 9 15 5 8 1012.1 1012.1 6.8
31/07:30am 14.8 15.6 14.8 100 0.0 S 4 13 2 7 1011.9 1011.9 6.6
31/07:00am 14.8 13.9 14.8 100 0.0 SSE 13 17 7 9 1011.4 1011.4 6.0
31/06:30am 15.1 14.7 15.1 100 0.0 SE 11 15 6 8 1011.5 1011.5 4.8
31/06:00am 14.9 15.7 14.9 100 0.0 SE 4 9 2 5 1011.4 1011.4 3.0
31/05:30am 14.8 15.2 14.8 100 0.0 SE 6 13 3 7 1011.4 1011.4 3.0
31/05:00am 14.4 15.8 14.4 100 0.0 CALM 0 0 0 0 1011.2 1011.2 3.0
31/04:30am 14.4 15.8 14.4 100 0.0 CALM 0 0 0 0 1011.4 1011.4 3.0
31/04:00am 14.2 15.5 14.2 100 0.0 CALM 0 0 0 0 1011.3 1011.3 3.0
31/03:30am 16.3 17.1 16.3 100 0.0 WNW 7 9 4 5 1011.2 1011.2 3.0
31/03:00am 16.6 17.1 16.6 100 0.0 NW 9 13 5 7 1011.5 1011.5 3.0
31/02:30am 17.2 17.6 17.2 100 0.0 NW 11 15 6 8 1011.8 1011.8 3.0
31/02:00am 17.1 18.2 17.1 100 0.0 NW 7 9 4 5 1012.1 1012.1 2.8
31/01:30am 16.6 17.1 16.6 100 0.0 NNW 9 13 5 7 1012.5 1012.5 2.8
31/01:00am 15.8 16.0 15.8 100 0.0 NNW 9 11 5 6 1012.5 1012.5 2.8
31/12:30am 15.8 16.0 15.8 100 0.0 NNW 9 13 5 7 1012.7 1012.7 2.8
31/12:00am 14.5 15.6 14.5 100 0.0 NNW 2 7 1 4 1012.8 1012.8 2.8
 
Date/Time
WST
Temp
°C
App
Temp
°C
Dew
Point
Rel
Hum
%
Delta-T
°C
Wind Press
QNH
hPa
Press
MSL
hPa
Rain
since 9 am
mm
Dir
 
Spd
km/h
Gust
km/h
Spd
kts
Gust
kts
30/11:30pm 14.2 15.5 14.2 100 0.0 CALM 0 0 0 0 1013.5 1013.5 2.8
30/11:00pm 14.4 15.8 14.4 100 0.0 CALM 0 0 0 0 1013.7 1013.7 2.8
30/10:30pm 14.6 14.8 14.6 100 0.0 S 7 9 4 5 1013.8 1013.8 2.8
30/10:00pm 14.8 15.2 14.8 100 0.0 SE 6 13 3 7 1013.9 1013.9 2.8
30/09:30pm 14.9 15.2 14.9 100 0.0 E 7 11 4 6 1014.5 1014.5 2.8
30/09:00pm 14.9 15.2 14.9 100 0.0 SSE 7 11 4 6 1014.5 1014.5 2.6
30/08:30pm 14.9 16.5 14.9 100 0.0 CALM 0 0 0 0 1014.6 1014.6 2.6
30/08:00pm 15.0 14.9 15.0 100 0.0 SSE 9 13 5 7 1014.8 1014.8 2.0
30/07:30pm 14.9 15.4 14.9 100 0.0 SSE 6 9 3 5 1015.0 1015.0 1.6
30/07:00pm 15.0 16.6 15.0 100 0.0 CALM 0 7 0 4 1014.8 1014.8 1.6
30/06:30pm 15.2 15.6 15.2 100 0.0 ESE 7 11 4 6 1015.1 1015.1 1.6
30/06:00pm 15.5 16.0 15.5 100 0.0 ESE 7 11 4 6 1015.4 1015.4 1.6
30/05:30pm 15.8 15.9 15.6 99 0.1 E 9 13 5 7 1015.3 1015.3 1.6
30/05:00pm 16.1 16.4 15.9 99 0.1 ESE 9 11 5 6 1015.4 1015.4 1.2
30/04:30pm 16.3 16.6 16.1 99 0.1 E 9 13 5 7 1015.3 1015.3 1.0
30/04:00pm 16.5 16.6 15.5 94 0.6 NE 9 15 5 8 1015.7 1015.7 0.6
30/03:30pm 17.2 16.8 15.2 88 1.2 ENE 11 17 6 9 1016.1 1016.1 0.0
30/03:00pm 17.4 16.5 14.9 85 1.5 ENE 13 19 7 10 1016.3 1016.3 0.0
30/02:30pm 17.5 16.1 14.4 82 1.8 ENE 15 22 8 12 1016.5 1016.6 0.0
30/02:00pm 17.2 17.1 15.9 92 0.8 ENE 11 19 6 10 1016.9 1017.0 0.0
30/01:30pm 16.7 17.2 16.5 99 0.1 E 9 13 5 7 1017.6 1017.7 0.0
30/01:00pm 16.1 16.0 16.1 100 0.0 E 11 15 6 8 1018.1 1018.2 0.0
30/12:30pm 15.9 16.2 15.9 100 0.0 ESE 9 13 5 7 1019.0 1019.1 0.0
30/12:00pm 15.2 15.6 15.2 100 0.0 E 7 11 4 6 1019.8 1019.9 0.0
30/11:30am 15.1 15.4 15.1 100 0.0 SE 7 13 4 7 1020.2 1020.2 0.0
30/11:00am 13.8 13.3 13.8 100 0.0 E 9 15 5 8 1020.3 1020.3 0.0
30/10:30am 13.2 12.5 13.2 100 0.0 ESE 9 13 5 7 1020.5 1020.5 0.0
30/10:00am 12.7 12.2 12.7 100 0.0 ESE 7 11 4 6 1020.9 1020.9 0.0
30/09:30am 12.1 11.0 12.1 100 0.0 SE 9 13 5 7 1020.9 1020.9 0.0
30/09:00am 11.7 10.9 11.7 100 0.0 SE 7 11 4 6 1021.1 1021.1 0.2
30/08:30am 11.4 10.1 11.4 100 0.0 SE 9 13 5 7 1020.6 1020.6 0.2
30/08:00am 10.9 9.9 10.9 100 0.0 SE 7 11 4 6 1020.5 1020.5 0.2
30/07:30am 10.8 9.7 10.8 100 0.0 SE 7 11 4 6 1020.4 1020.4 0.0
30/07:00am 11.0 10.0 11.0 100 0.0 ESE 7 9 4 5 1020.3 1020.3 0.0
30/06:30am 11.5 11.6 11.5 100 0.0 ESE 2 11 1 6 1020.2 1020.2 0.0
30/06:00am 11.8 11.0 11.8 100 0.0 E 7 13 4 7 1020.1 1020.1 0.0
30/05:30am 11.5 10.8 11.5 100 0.0 E 6 11 3 6 1019.6 1019.7 0.0
30/05:00am 11.6 10.8 11.6 100 0.0 ESE 7 13 4 7 1019.4 1019.5 0.0
30/04:30am 12.1 11.0 12.1 100 0.0 NE 9 17 5 9 1019.8 1019.9 0.0
30/04:00am 11.9 10.8 11.9 100 0.0 E 9 13 5 7 1019.8 1019.9 0.0
30/03:30am 11.7 10.9 11.7 100 0.0 SE 7 11 4 6 1019.7 1019.8 0.0
30/03:00am 11.2 10.8 11.2 100 0.0 SE 4 9 2 5 1019.9 1020.0 0.0
30/02:30am 11.6 10.8 11.6 100 0.0 SE 7 11 4 6 1020.1 1020.1 0.0
30/02:00am 11.9 12.5 11.9 100 0.0 CALM 0 0 0 0 1020.3 1020.3 0.0
30/01:30am 12.2 12.9 12.2 100 0.0 CALM 0 6 0 3 1020.3 1020.3 0.0
30/01:00am 12.4 13.2 12.4 100 0.0 CALM 0 6 0 3 1020.3 1020.3 0.0
30/12:30am 12.2 11.7 12.2 100 0.0 ESE 6 11 3 6 1020.3 1020.3 0.0
30/12:00am 11.1 11.0 10.9 99 0.1 ESE 2 7 1 4 1020.2 1020.2 0.0
 
Date/Time
WST
Temp
°C
App
Temp
°C
Dew
Point
Rel
Hum
%
Delta-T
°C
Wind Press
QNH
hPa
Press
MSL
hPa
Rain
since 9 am
mm
Dir
 
Spd
km/h
Gust
km/h
Spd
kts
Gust
kts
29/11:30pm 11.1 10.3 10.9 99 0.1 SE 6 9 3 5 1020.1 1020.1 0.0
29/11:00pm 11.6 10.7 11.4 99 0.1 SSE 7 11 4 6 1019.9 1020.0 0.0
29/10:30pm 11.4 11.8 11.2 99 0.1 CALM 0 0 0 0 1019.9 1020.0 0.0
29/10:00pm 10.8 11.0 10.6 99 0.1 CALM 0 0 0 0 1019.9 1020.0 0.0
29/09:30pm 11.0 11.3 10.8 99 0.1 CALM 0 0 0 0 1019.9 1020.0 0.0
29/09:00pm 11.6 12.0 11.4 99 0.1 CALM 0 0 0 0 1019.7 1019.8 0.0
29/08:30pm 11.6 12.0 11.4 99 0.1 CALM 0 0 0 0 1019.5 1019.6 0.0
29/08:00pm 12.0 12.6 11.8 99 0.1 CALM 0 0 0 0 1019.4 1019.5 0.0
29/07:30pm 11.8 11.5 11.3 97 0.3 N 4 9 2 5 1019.0 1019.1 0.0
29/07:00pm 13.7 14.5 12.6 93 0.6 CALM 0 0 0 0 1018.7 1018.8 0.0
29/06:30pm 14.4 14.8 12.6 89 1.0 WNW 2 7 1 4 1018.1 1018.2 0.0
29/06:00pm 15.0 14.1 12.7 86 1.3 NNW 9 11 5 6 1018.0 1018.1 0.0
29/05:30pm 16.2 15.4 12.9 81 1.8 NW 9 11 5 6 1017.5 1017.6 0.0
29/05:00pm 17.5 16.9 13.4 77 2.3 NW 9 15 5 8 1017.5 1017.6 0.0
29/04:30pm 18.0 16.3 13.7 76 2.5 NNW 15 22 8 12 1017.4 1017.5 0.0
29/04:00pm 18.3 16.1 13.2 72 2.9 NW 17 26 9 14 1017.3 1017.4 0.0
29/03:30pm 18.1 16.6 13.2 73 2.8 NW 13 22 7 12 1016.9 1017.0 0.0
29/03:00pm 18.1 17.1 13.4 74 2.7 NW 11 19 6 10 1016.6 1016.7 0.0
29/02:30pm 18.0 16.2 13.3 74 2.7 NW 15 22 8 12 1016.4 1016.5 0.0
29/02:00pm 17.7 16.1 14.0 79 2.1 NNW 15 22 8 12 1016.4 1016.5 0.0

Other Formats:

Comma delimited format used in spreadsheet applications
http://www.bom.gov.au/fwo/IDW60801/IDW60801.95641.axf

JavaScript Object Notation format (JSON) in row-major order
http://www.bom.gov.au/fwo/IDW60801/IDW60801.95641.json